createdAt,value
2022-07-31T00:00:27.452Z,98687.00
2022-07-31T00:03:15.221Z,98692.00
2022-07-31T00:06:02.970Z,98688.00
2022-07-31T00:08:51.007Z,98686.00
2022-07-31T00:11:38.750Z,98691.00
2022-07-31T00:14:26.418Z,98697.00
2022-07-31T00:17:14.114Z,98701.00
2022-07-31T00:20:02.301Z,98695.00
2022-07-31T00:22:50.639Z,98702.00
2022-07-31T00:25:38.614Z,98697.00
2022-07-31T00:28:26.988Z,98701.00
2022-07-31T00:31:14.552Z,98691.00
2022-07-31T00:34:02.168Z,98695.00
2022-07-31T00:36:49.974Z,98690.00
2022-07-31T00:39:38.584Z,98688.00
2022-07-31T00:42:26.592Z,98681.00
2022-07-31T00:45:14.197Z,98688.00
2022-07-31T00:48:04.034Z,98691.00
2022-07-31T00:50:52.344Z,98689.00
2022-07-31T00:53:39.998Z,98686.00
2022-07-31T00:56:27.608Z,98691.00
2022-07-31T00:59:15.269Z,98694.00
2022-07-31T01:02:04.749Z,98691.00
2022-07-31T01:04:52.314Z,98695.00
2022-07-31T01:07:39.893Z,98696.00
2022-07-31T01:11:12.412Z,98690.00
2022-07-31T01:14:05.733Z,98690.00
2022-07-31T01:16:56.754Z,98683.00
2022-07-31T01:19:47.331Z,98689.00
2022-07-31T01:23:02.139Z,98697.00
2022-07-31T01:26:03.145Z,98699.00
2022-07-31T01:29:10.434Z,98685.00
2022-07-31T01:32:10.919Z,98693.00
2022-07-31T01:35:11.886Z,98698.00
2022-07-31T01:38:11.765Z,98693.00
2022-07-31T01:41:04.749Z,98700.00
2022-07-31T01:43:57.130Z,98692.00
2022-07-31T01:46:48.150Z,98700.00
2022-07-31T01:49:37.859Z,98698.00
2022-07-31T01:52:29.884Z,98698.00
2022-07-31T01:55:18.651Z,98697.00
2022-07-31T01:58:07.722Z,98705.00
2022-07-31T02:00:58.629Z,98708.00
2022-07-31T02:03:51.481Z,98708.00
2022-07-31T02:06:49.149Z,98712.00
2022-07-31T02:09:38.154Z,98711.00
2022-07-31T02:12:47.217Z,98709.00
2022-07-31T02:15:36.279Z,98708.00
2022-07-31T02:18:25.604Z,98716.00
2022-07-31T02:21:13.194Z,98720.00
2022-07-31T02:24:00.954Z,98707.00
2022-07-31T02:26:49.289Z,98707.00
2022-07-31T02:29:40.261Z,98698.00
2022-07-31T02:32:31.589Z,98700.00
2022-07-31T02:35:20.286Z,98702.00
2022-07-31T02:38:17.102Z,98695.00
2022-07-31T02:41:17.311Z,98696.00
2022-07-31T02:44:05.768Z,98694.00
2022-07-31T02:46:54.019Z,98693.00
2022-07-31T02:49:43.177Z,98697.00
2022-07-31T02:52:33.825Z,98697.00
2022-07-31T02:55:21.785Z,98695.00
2022-07-31T02:58:09.516Z,98701.00
2022-07-31T03:01:07.444Z,98700.00
2022-07-31T03:03:55.121Z,98702.00
2022-07-31T03:06:50.368Z,98696.00
2022-07-31T03:09:37.887Z,98703.00
2022-07-31T03:12:25.549Z,98699.00
2022-07-31T03:15:20.086Z,98692.00
2022-07-31T03:18:11.896Z,98696.00
2022-07-31T03:20:59.691Z,98697.00
2022-07-31T03:23:47.892Z,98698.00
2022-07-31T03:26:36.270Z,98693.00
2022-07-31T03:29:39.236Z,98690.00
2022-07-31T03:32:30.734Z,98699.00
2022-07-31T03:35:18.607Z,98694.00
2022-07-31T03:38:40.654Z,98697.00
2022-07-31T03:41:13.764Z,98691.00
2022-07-31T03:44:02.659Z,98690.00
2022-07-31T03:46:50.401Z,98689.00
2022-07-31T03:49:38.810Z,98691.00
2022-07-31T03:52:26.336Z,98692.00
2022-07-31T03:55:14.729Z,98695.00
2022-07-31T03:58:04.919Z,98696.00
2022-07-31T04:00:55.208Z,98697.00
2022-07-31T04:03:43.069Z,98694.00
2022-07-31T04:06:30.549Z,98689.00
2022-07-31T04:09:18.837Z,98696.00
2022-07-31T04:12:07.452Z,98696.00
2022-07-31T04:14:55.205Z,98690.00
2022-07-31T04:17:42.879Z,98699.00
2022-07-31T04:20:30.334Z,98705.00
2022-07-31T04:23:17.865Z,98709.00
2022-07-31T04:26:07.039Z,98714.00
2022-07-31T04:28:54.733Z,98716.00
2022-07-31T04:31:42.405Z,98722.00
2022-07-31T04:34:29.879Z,98716.00
2022-07-31T04:37:17.448Z,98720.00
2022-07-31T04:40:05.541Z,98719.00
2022-07-31T04:42:55.669Z,98713.00
2022-07-31T04:45:43.704Z,98713.00
2022-07-31T04:48:31.160Z,98723.00
2022-07-31T04:51:21.020Z,98725.00
2022-07-31T04:54:10.110Z,98728.00
2022-07-31T04:56:57.660Z,98727.00
2022-07-31T04:59:59.663Z,98734.00
2022-07-31T05:02:48.602Z,98736.00
2022-07-31T05:05:36.086Z,98737.00
2022-07-31T05:08:23.557Z,98732.00
2022-07-31T05:11:23.001Z,98734.00
2022-07-31T05:14:13.415Z,98734.00
2022-07-31T05:17:01.005Z,98737.00
2022-07-31T05:19:48.582Z,98740.00
2022-07-31T05:22:36.049Z,98739.00
2022-07-31T05:25:23.502Z,98736.00
2022-07-31T05:28:11.000Z,98747.00
2022-07-31T05:31:00.465Z,98744.00
2022-07-31T05:33:50.217Z,98753.00
2022-07-31T05:36:37.726Z,98739.00
2022-07-31T05:39:25.383Z,98742.00
2022-07-31T05:42:12.866Z,98738.00
2022-07-31T05:45:00.362Z,98736.00
2022-07-31T05:47:47.954Z,98737.00
2022-07-31T05:50:35.520Z,98744.00
2022-07-31T05:53:23.652Z,98744.00
2022-07-31T05:56:11.185Z,98743.00
2022-07-31T05:58:58.720Z,98742.00
2022-07-31T06:01:46.654Z,98739.00
2022-07-31T06:04:34.338Z,98734.00
2022-07-31T06:07:21.850Z,98733.00
2022-07-31T06:10:09.991Z,98738.00
2022-07-31T06:12:57.481Z,98740.00
2022-07-31T06:15:49.408Z,98734.00
2022-07-31T06:18:37.080Z,98740.00
2022-07-31T06:21:28.746Z,98735.00
2022-07-31T06:24:18.160Z,98734.00
2022-07-31T06:27:05.700Z,98745.00
2022-07-31T06:29:57.963Z,98743.00
2022-07-31T06:32:45.467Z,98743.00
2022-07-31T06:35:33.196Z,98744.00
2022-07-31T06:38:24.384Z,98741.00
2022-07-31T06:41:11.976Z,98749.00
2022-07-31T06:43:59.506Z,98740.00
2022-07-31T06:46:49.024Z,98749.00
2022-07-31T06:49:36.894Z,98743.00
2022-07-31T06:52:27.630Z,98750.00
2022-07-31T06:55:15.184Z,98743.00
2022-07-31T06:58:02.631Z,98749.00
2022-07-31T07:00:50.232Z,98744.00
2022-07-31T07:03:38.590Z,98746.00
2022-07-31T07:06:27.048Z,98739.00
2022-07-31T07:09:14.548Z,98741.00
2022-07-31T07:12:02.189Z,98745.00
2022-07-31T07:14:49.689Z,98739.00
2022-07-31T07:17:37.188Z,98739.00
2022-07-31T07:20:24.769Z,98731.00
2022-07-31T07:23:12.717Z,98741.00
2022-07-31T07:26:00.167Z,98734.00
2022-07-31T07:28:47.792Z,98734.00
2022-07-31T07:31:35.286Z,98733.00
2022-07-31T07:34:22.781Z,98728.00
2022-07-31T07:37:10.300Z,98733.00
2022-07-31T07:40:03.743Z,98733.00
2022-07-31T07:42:51.608Z,98730.00
2022-07-31T07:45:40.094Z,98731.00
2022-07-31T07:48:27.665Z,98723.00
2022-07-31T07:51:15.365Z,98722.00
2022-07-31T07:54:02.904Z,98721.00
2022-07-31T07:56:51.340Z,98722.00
2022-07-31T07:59:38.825Z,98723.00
2022-07-31T08:02:26.765Z,98720.00
2022-07-31T08:05:14.620Z,98722.00
2022-07-31T08:08:02.076Z,98723.00
2022-07-31T08:10:50.001Z,98726.00
2022-07-31T08:13:40.881Z,98710.00
2022-07-31T08:16:28.710Z,98715.00
2022-07-31T08:19:16.257Z,98711.00
2022-07-31T08:22:04.226Z,98717.00
2022-07-31T08:24:52.069Z,98709.00
2022-07-31T08:27:40.731Z,98720.00
2022-07-31T08:30:31.158Z,98705.00
2022-07-31T08:33:18.913Z,98697.00
2022-07-31T08:36:09.142Z,98703.00
2022-07-31T08:38:56.811Z,98700.00
2022-07-31T08:41:44.380Z,98691.00
2022-07-31T08:44:31.905Z,98694.00
2022-07-31T08:47:22.976Z,98687.00
2022-07-31T08:50:15.684Z,98694.00
2022-07-31T08:53:05.187Z,98691.00
2022-07-31T08:55:56.417Z,98692.00
2022-07-31T08:58:45.191Z,98692.00
2022-07-31T09:01:37.724Z,98691.00
2022-07-31T09:04:25.828Z,98687.00
2022-07-31T09:07:16.818Z,98696.00
2022-07-31T09:10:23.464Z,98690.00
2022-07-31T09:13:19.146Z,98676.00
2022-07-31T09:16:07.499Z,98673.00
2022-07-31T09:19:51.852Z,98677.00
2022-07-31T09:22:29.383Z,98676.00
2022-07-31T09:25:19.175Z,98678.00
2022-07-31T09:28:07.764Z,98666.00
2022-07-31T09:30:57.121Z,98666.00
2022-07-31T09:33:46.687Z,98671.00
2022-07-31T09:36:35.005Z,98658.00
2022-07-31T09:39:27.004Z,98663.00
2022-07-31T09:42:16.640Z,98664.00
2022-07-31T09:45:16.862Z,98661.00
2022-07-31T09:48:14.461Z,98656.00
2022-07-31T09:51:08.539Z,98656.00
2022-07-31T09:53:57.929Z,98662.00
2022-07-31T09:56:47.139Z,98654.00
2022-07-31T09:59:34.562Z,98660.00
2022-07-31T10:02:25.619Z,98656.00
2022-07-31T10:05:13.983Z,98649.00
2022-07-31T10:08:02.695Z,98651.00
2022-07-31T10:10:50.725Z,98636.00
2022-07-31T10:13:46.421Z,98647.00
2022-07-31T10:16:40.781Z,98641.00
2022-07-31T10:19:36.141Z,98639.00
2022-07-31T10:22:26.501Z,98643.00
2022-07-31T10:25:27.504Z,98629.00
2022-07-31T10:28:15.820Z,98631.00
2022-07-31T10:31:04.225Z,98629.00
2022-07-31T10:33:52.415Z,98621.00
2022-07-31T10:36:45.460Z,98622.00
2022-07-31T10:39:49.918Z,98628.00
2022-07-31T10:42:55.676Z,98628.00
2022-07-31T10:45:54.149Z,98620.00
2022-07-31T10:48:54.692Z,98621.00
2022-07-31T10:51:50.911Z,98612.00
2022-07-31T10:54:47.855Z,98615.00
2022-07-31T10:57:56.380Z,98621.00
2022-07-31T11:00:44.065Z,98615.00
2022-07-31T11:03:41.879Z,98611.00
2022-07-31T11:06:41.791Z,98616.00
2022-07-31T11:09:30.100Z,98618.00
2022-07-31T11:12:21.700Z,98614.00
2022-07-31T11:15:26.045Z,98612.00
2022-07-31T11:18:26.732Z,98618.00
2022-07-31T11:21:37.580Z,98614.00
2022-07-31T11:24:24.239Z,98608.00
2022-07-31T11:27:11.750Z,98606.00
2022-07-31T11:30:13.357Z,98598.00
2022-07-31T11:33:01.361Z,98597.00
2022-07-31T11:35:49.045Z,98596.00
2022-07-31T11:38:37.791Z,98598.00
2022-07-31T11:41:39.131Z,98613.00
2022-07-31T11:44:31.904Z,98603.00
2022-07-31T11:47:27.872Z,98608.00
2022-07-31T11:50:31.105Z,98595.00
2022-07-31T11:53:19.768Z,98603.00
2022-07-31T11:56:10.097Z,98603.00
2022-07-31T11:58:58.810Z,98597.00
2022-07-31T12:01:46.417Z,98591.00
2022-07-31T12:04:38.355Z,98591.00
2022-07-31T12:07:25.892Z,98592.00
2022-07-31T12:10:14.237Z,98595.00
2022-07-31T12:13:02.820Z,98592.00
2022-07-31T12:16:08.374Z,98589.00
2022-07-31T12:19:01.399Z,98589.00
2022-07-31T12:21:48.890Z,98597.00
2022-07-31T12:24:36.395Z,98592.00
2022-07-31T12:27:23.905Z,98587.00
2022-07-31T12:30:16.895Z,98588.00
2022-07-31T12:33:13.025Z,98593.00
2022-07-31T12:36:00.535Z,98595.00
2022-07-31T12:39:03.789Z,98591.00
2022-07-31T12:41:51.331Z,98579.00
2022-07-31T12:44:52.837Z,98590.00
2022-07-31T12:47:40.571Z,98585.00
2022-07-31T12:50:30.345Z,98570.00
2022-07-31T12:53:17.834Z,98577.00
2022-07-31T12:56:10.591Z,98583.00
2022-07-31T12:58:58.104Z,98578.00
2022-07-31T13:01:45.578Z,98576.00
2022-07-31T13:04:34.357Z,98572.00
2022-07-31T13:07:21.865Z,98560.00
2022-07-31T13:10:19.993Z,98563.00
2022-07-31T13:13:09.250Z,98562.00
2022-07-31T13:15:56.746Z,98554.00
2022-07-31T13:18:44.214Z,98550.00
2022-07-31T13:21:48.431Z,98545.00
2022-07-31T13:24:37.184Z,98547.00
2022-07-31T13:27:24.734Z,98548.00
2022-07-31T13:30:14.152Z,98547.00
2022-07-31T13:33:01.691Z,98542.00
2022-07-31T13:35:49.331Z,98548.00
2022-07-31T13:38:36.843Z,98552.00
2022-07-31T13:41:24.344Z,98546.00
2022-07-31T13:44:11.770Z,98548.00
2022-07-31T13:46:59.748Z,98553.00
2022-07-31T13:49:47.199Z,98554.00
2022-07-31T13:52:34.635Z,98549.00
2022-07-31T13:55:22.163Z,98545.00
2022-07-31T13:58:09.655Z,98526.00
2022-07-31T14:01:00.302Z,98525.00
2022-07-31T14:03:51.444Z,98535.00
2022-07-31T14:06:39.598Z,98538.00
2022-07-31T14:09:27.118Z,98534.00
2022-07-31T14:12:14.615Z,98527.00
2022-07-31T14:15:04.441Z,98538.00
2022-07-31T14:17:51.943Z,98531.00
2022-07-31T14:20:39.449Z,98536.00
2022-07-31T14:23:34.044Z,98534.00
2022-07-31T14:26:23.759Z,98537.00
2022-07-31T14:29:11.293Z,98539.00
2022-07-31T14:31:59.019Z,98536.00
2022-07-31T14:34:52.231Z,98528.00
2022-07-31T14:37:41.881Z,98535.00
2022-07-31T14:40:30.928Z,98530.00
2022-07-31T14:43:18.474Z,98537.00
2022-07-31T14:46:07.166Z,98530.00
2022-07-31T14:48:54.786Z,98535.00
2022-07-31T14:51:42.309Z,98524.00
2022-07-31T14:54:29.847Z,98523.00
2022-07-31T14:57:21.962Z,98521.00
2022-07-31T15:00:15.030Z,98518.00
2022-07-31T15:03:02.656Z,98523.00
2022-07-31T15:06:39.439Z,98523.00
2022-07-31T15:08:57.569Z,98521.00
2022-07-31T15:11:58.247Z,98520.00
2022-07-31T15:14:48.299Z,98528.00
2022-07-31T15:17:35.904Z,98512.00
2022-07-31T15:20:28.822Z,98517.00
2022-07-31T15:23:21.301Z,98516.00
2022-07-31T15:26:08.854Z,98525.00
2022-07-31T15:28:56.384Z,98520.00
2022-07-31T15:31:43.880Z,98512.00
2022-07-31T15:34:32.769Z,98512.00
2022-07-31T15:37:20.705Z,98502.00
2022-07-31T15:40:16.996Z,98510.00
2022-07-31T15:43:04.510Z,98505.00
2022-07-31T15:45:52.001Z,98499.00
2022-07-31T15:48:39.805Z,98502.00
2022-07-31T15:51:27.414Z,98508.00
2022-07-31T15:54:15.375Z,98498.00
2022-07-31T15:57:03.055Z,98489.00
2022-07-31T15:59:54.496Z,98489.00
2022-07-31T16:02:45.520Z,98479.00
2022-07-31T16:05:36.731Z,98477.00
2022-07-31T16:08:29.640Z,98473.00
2022-07-31T16:11:22.030Z,98480.00
2022-07-31T16:14:10.631Z,98466.00
2022-07-31T16:16:58.199Z,98465.00
2022-07-31T16:19:45.835Z,98460.00
2022-07-31T16:22:33.320Z,98470.00
2022-07-31T16:25:23.002Z,98460.00
2022-07-31T16:28:10.513Z,98457.00
2022-07-31T16:30:57.989Z,98458.00
2022-07-31T16:33:50.795Z,98458.00
2022-07-31T16:36:38.654Z,98458.00
2022-07-31T16:39:26.177Z,98458.00
2022-07-31T16:42:13.665Z,98450.00
2022-07-31T16:45:01.156Z,98455.00
2022-07-31T16:47:51.437Z,98460.00
2022-07-31T16:50:39.520Z,98452.00
2022-07-31T16:54:11.366Z,98453.00
2022-07-31T16:56:37.624Z,98446.00
2022-07-31T16:59:25.146Z,98455.00
2022-07-31T17:02:13.349Z,98449.00
2022-07-31T17:05:00.841Z,98451.00
2022-07-31T17:07:48.295Z,98449.00
2022-07-31T17:10:35.748Z,98451.00
2022-07-31T17:13:23.310Z,98457.00
2022-07-31T17:16:10.964Z,98462.00
2022-07-31T17:18:58.811Z,98448.00
2022-07-31T17:21:53.291Z,98446.00
2022-07-31T17:24:41.091Z,98446.00
2022-07-31T17:27:28.699Z,98450.00
2022-07-31T17:30:16.309Z,98450.00
2022-07-31T17:33:03.934Z,98446.00
2022-07-31T17:35:51.514Z,98453.00
2022-07-31T17:38:38.995Z,98443.00
2022-07-31T17:41:26.635Z,98447.00
2022-07-31T17:44:14.937Z,98446.00
2022-07-31T17:47:03.392Z,98448.00
2022-07-31T17:49:59.739Z,98454.00
2022-07-31T17:55:49.999Z,98461.00
2022-07-31T17:58:37.455Z,98464.00
2022-07-31T18:01:28.920Z,98463.00
2022-07-31T18:04:17.085Z,98466.00
2022-07-31T18:07:07.484Z,98470.00
2022-07-31T18:09:57.188Z,98469.00
2022-07-31T18:12:57.859Z,98462.00
2022-07-31T18:15:45.813Z,98466.00
2022-07-31T18:18:33.184Z,98470.00
2022-07-31T18:21:20.680Z,98464.00
2022-07-31T18:24:08.942Z,98470.00
2022-07-31T18:26:56.485Z,98468.00
2022-07-31T18:29:55.883Z,98473.00
2022-07-31T18:32:44.176Z,98466.00
2022-07-31T18:35:31.710Z,98467.00
2022-07-31T18:38:19.522Z,98467.00
2022-07-31T18:41:07.324Z,98477.00
2022-07-31T18:43:55.163Z,98470.00
2022-07-31T18:46:42.594Z,98470.00
2022-07-31T18:51:01.369Z,98475.00
2022-07-31T18:52:37.595Z,98465.00
2022-07-31T18:55:25.189Z,98469.00
2022-07-31T18:58:13.094Z,98472.00
2022-07-31T19:01:00.969Z,98468.00
2022-07-31T19:03:49.593Z,98481.00
2022-07-31T19:06:37.119Z,98482.00
2022-07-31T19:09:25.392Z,98484.00
2022-07-31T19:12:14.079Z,98484.00
2022-07-31T19:15:02.932Z,98482.00
2022-07-31T19:17:50.374Z,98486.00
2022-07-31T19:20:41.324Z,98489.00
2022-07-31T19:23:47.118Z,98484.00
2022-07-31T19:26:34.696Z,98482.00
2022-07-31T19:29:23.483Z,98485.00
2022-07-31T19:32:11.674Z,98487.00
2022-07-31T19:34:59.178Z,98486.00
2022-07-31T19:37:46.814Z,98496.00
2022-07-31T19:40:34.480Z,98487.00
2022-07-31T19:43:21.948Z,98485.00
2022-07-31T19:46:11.715Z,98490.00
2022-07-31T19:49:01.492Z,98491.00
2022-07-31T19:51:48.998Z,98493.00
2022-07-31T19:54:37.318Z,98489.00
2022-07-31T19:57:24.848Z,98494.00
2022-07-31T20:00:13.664Z,98494.00
2022-07-31T20:03:01.233Z,98501.00
2022-07-31T20:05:48.754Z,98492.00
2022-07-31T20:08:36.439Z,98492.00
2022-07-31T20:11:24.159Z,98495.00
2022-07-31T20:14:11.619Z,98494.00
2022-07-31T20:16:59.149Z,98491.00
2022-07-31T20:20:13.308Z,98489.00
2022-07-31T20:22:54.004Z,98485.00
2022-07-31T20:25:41.590Z,98486.00
2022-07-31T20:28:29.109Z,98492.00
2022-07-31T20:31:21.728Z,98489.00
2022-07-31T20:34:09.709Z,98478.00
2022-07-31T20:36:58.825Z,98483.00
2022-07-31T20:39:46.885Z,98479.00
2022-07-31T20:42:34.583Z,98486.00
2022-07-31T20:45:23.413Z,98491.00
2022-07-31T20:48:11.024Z,98478.00
2022-07-31T20:51:00.570Z,98486.00
2022-07-31T20:53:49.859Z,98479.00
2022-07-31T20:56:37.740Z,98484.00
2022-07-31T20:59:27.219Z,98479.00
2022-07-31T21:02:14.684Z,98478.00
2022-07-31T21:05:02.807Z,98478.00
2022-07-31T21:07:50.300Z,98488.00
2022-07-31T21:10:38.704Z,98481.00
2022-07-31T21:13:29.159Z,98489.00
2022-07-31T21:16:16.628Z,98482.00
2022-07-31T21:19:04.239Z,98484.00
2022-07-31T21:21:52.533Z,98482.00
2022-07-31T21:24:40.442Z,98481.00
2022-07-31T21:27:31.139Z,98487.00
2022-07-31T21:30:18.760Z,98490.00
2022-07-31T21:33:08.220Z,98488.00
2022-07-31T21:35:56.504Z,98489.00
2022-07-31T21:38:44.459Z,98486.00
2022-07-31T21:41:32.379Z,98482.00
2022-07-31T21:44:20.334Z,98481.00
2022-07-31T21:47:14.785Z,98481.00
2022-07-31T21:50:09.262Z,98494.00
2022-07-31T21:52:56.786Z,98486.00
2022-07-31T21:55:44.260Z,98485.00
2022-07-31T21:58:31.804Z,98490.00
2022-07-31T22:01:19.364Z,98480.00
2022-07-31T22:04:06.895Z,98487.00
2022-07-31T22:07:13.059Z,98487.00
2022-07-31T22:10:00.631Z,98480.00
2022-07-31T22:12:49.194Z,98488.00
2022-07-31T22:15:51.433Z,98494.00
2022-07-31T22:18:45.040Z,98489.00
2022-07-31T22:21:33.406Z,98493.00
2022-07-31T22:24:21.046Z,98497.00
2022-07-31T22:27:43.999Z,98497.00
2022-07-31T22:30:31.802Z,98489.00
2022-07-31T22:33:20.143Z,98477.00
2022-07-31T22:36:08.429Z,98484.00
2022-07-31T22:38:57.305Z,98485.00
2022-07-31T22:41:44.865Z,98486.00
2022-07-31T22:44:32.440Z,98483.00
2022-07-31T22:47:20.200Z,98481.00
2022-07-31T22:50:10.321Z,98478.00
2022-07-31T22:52:58.263Z,98481.00
2022-07-31T22:55:45.769Z,98480.00
2022-07-31T22:58:33.238Z,98475.00
2022-07-31T23:01:20.758Z,98479.00
2022-07-31T23:04:08.296Z,98478.00
2022-07-31T23:06:56.320Z,98478.00
2022-07-31T23:09:43.840Z,98477.00
2022-07-31T23:12:31.428Z,98481.00
2022-07-31T23:15:19.020Z,98484.00
2022-07-31T23:18:06.595Z,98490.00
2022-07-31T23:20:54.138Z,98491.00
2022-07-31T23:23:42.216Z,98494.00
2022-07-31T23:26:37.206Z,98489.00
2022-07-31T23:29:24.784Z,98498.00
2022-07-31T23:32:12.346Z,98509.00
2022-07-31T23:34:59.835Z,98494.00
2022-07-31T23:37:47.950Z,98493.00
2022-07-31T23:40:35.475Z,98488.00
2022-07-31T23:43:24.124Z,98487.00
2022-07-31T23:46:11.594Z,98486.00
2022-07-31T23:48:59.186Z,98482.00
2022-07-31T23:51:46.729Z,98484.00
2022-07-31T23:54:34.234Z,98476.00
2022-07-31T23:57:21.730Z,98478.00
